createdAt,value
2022-07-25T00:02:17.172Z,97175.94
2022-07-25T00:04:45.543Z,97171.59
2022-07-25T00:07:13.854Z,97172.63
2022-07-25T00:09:42.090Z,97164.78
2022-07-25T00:12:11.789Z,97158.19
2022-07-25T00:14:40.077Z,97160.06
2022-07-25T00:17:08.427Z,97155.94
2022-07-25T00:19:36.689Z,97159.91
2022-07-25T00:22:04.995Z,97154.94
2022-07-25T00:24:33.737Z,97156.00
2022-07-25T00:27:02.804Z,97150.00
2022-07-25T00:29:32.509Z,97154.78
2022-07-25T00:32:00.772Z,97150.44
2022-07-25T00:34:29.023Z,97148.56
2022-07-25T00:36:57.280Z,97143.41
2022-07-25T00:39:25.598Z,97146.94
2022-07-25T00:41:53.859Z,97147.38
2022-07-25T00:44:25.837Z,97142.19
2022-07-25T00:46:56.677Z,97151.13
2022-07-25T00:49:25.853Z,97148.63
2022-07-25T00:51:55.172Z,97141.00
2022-07-25T00:54:24.145Z,97136.88
2022-07-25T00:56:52.681Z,97136.03
2022-07-25T00:59:20.983Z,97134.41
2022-07-25T01:01:49.355Z,97133.34
2022-07-25T01:04:19.049Z,97131.09
2022-07-25T01:06:47.473Z,97128.63
2022-07-25T01:09:15.818Z,97132.38
2022-07-25T01:11:44.312Z,97137.75
2022-07-25T01:14:12.685Z,97129.91
2022-07-25T01:16:41.664Z,97133.63
2022-07-25T01:19:10.184Z,97129.72
2022-07-25T01:21:40.934Z,97125.41
2022-07-25T01:24:09.878Z,97126.66
2022-07-25T01:26:38.721Z,97129.56
2022-07-25T01:29:07.116Z,97126.28
2022-07-25T01:31:35.591Z,97124.84
2022-07-25T01:34:04.329Z,97121.09
2022-07-25T01:36:32.831Z,97129.78
2022-07-25T01:39:02.433Z,97121.31
2022-07-25T01:41:31.884Z,97118.63
2022-07-25T01:44:00.268Z,97120.50
2022-07-25T01:46:28.643Z,97121.78
2022-07-25T01:48:57.080Z,97103.56
2022-07-25T01:51:26.408Z,97117.66
2022-07-25T01:53:54.893Z,97109.78
2022-07-25T01:56:24.598Z,97108.97
2022-07-25T01:58:53.156Z,97113.53
2022-07-25T02:01:22.246Z,97099.44
2022-07-25T02:03:51.409Z,97103.19
2022-07-25T02:06:20.927Z,97100.72
2022-07-25T02:08:49.286Z,97098.47
2022-07-25T02:11:18.296Z,97085.22
2022-07-25T02:13:48.010Z,97086.09
2022-07-25T02:16:16.288Z,97090.44
2022-07-25T02:18:45.764Z,97090.44
2022-07-25T02:21:14.811Z,97093.34
2022-07-25T02:23:43.759Z,97093.34
2022-07-25T02:26:12.208Z,97086.53
2022-07-25T02:28:41.221Z,97087.81
2022-07-25T02:31:10.957Z,97095.88
2022-07-25T02:33:39.406Z,97092.81
2022-07-25T02:36:08.678Z,97092.59
2022-07-25T02:38:37.196Z,97087.63
2022-07-25T02:41:06.422Z,97088.25
2022-07-25T02:43:34.736Z,97090.31
2022-07-25T02:46:03.329Z,97080.59
2022-07-25T02:48:33.138Z,97084.34
2022-07-25T02:51:01.482Z,97085.38
2022-07-25T02:53:54.933Z,97081.03
2022-07-25T02:56:18.206Z,97084.78
2022-07-25T02:58:49.519Z,97080.66
2022-07-25T03:01:18.074Z,97096.81
2022-07-25T03:03:47.909Z,97090.81
2022-07-25T03:06:16.531Z,97098.06
2022-07-25T03:08:44.838Z,97080.72
2022-07-25T03:11:13.676Z,97078.22
2022-07-25T03:13:41.969Z,97080.31
2022-07-25T03:16:10.992Z,97083.22
2022-07-25T03:18:39.375Z,97083.41
2022-07-25T03:21:09.167Z,97082.22
2022-07-25T03:23:37.487Z,97082.00
2022-07-25T03:26:06.156Z,97087.38
2022-07-25T03:28:34.539Z,97082.00
2022-07-25T03:31:03.065Z,97086.53
2022-07-25T03:33:31.424Z,97082.22
2022-07-25T03:35:59.705Z,97077.88
2022-07-25T03:38:29.657Z,97077.88
2022-07-25T03:40:57.970Z,97081.59
2022-07-25T03:43:26.264Z,97078.31
2022-07-25T03:45:54.606Z,97082.03
2022-07-25T03:48:23.046Z,97068.81
2022-07-25T03:50:51.433Z,97067.19
2022-07-25T03:53:19.724Z,97068.44
2022-07-25T03:55:49.437Z,97072.38
2022-07-25T03:58:17.969Z,97070.97
2022-07-25T04:00:47.864Z,97067.66
2022-07-25T04:03:16.463Z,97055.28
2022-07-25T04:05:47.618Z,97071.00
2022-07-25T04:08:18.294Z,97065.84
2022-07-25T04:10:47.307Z,97067.69
2022-07-25T04:13:17.014Z,97062.75
2022-07-25T04:15:45.390Z,97061.09
2022-07-25T04:18:14.327Z,97059.47
2022-07-25T04:20:47.889Z,97062.97
2022-07-25T04:23:17.093Z,97062.16
2022-07-25T04:25:45.359Z,97056.16
2022-07-25T04:28:13.698Z,97059.06
2022-07-25T04:30:45.720Z,97059.38
2022-07-25T04:33:21.398Z,97055.88
2022-07-25T04:36:15.332Z,97047.97
2022-07-25T04:38:44.047Z,97052.97
2022-07-25T04:41:12.408Z,97041.16
2022-07-25T04:43:44.902Z,97041.19
2022-07-25T04:46:20.925Z,97049.03
2022-07-25T04:48:50.059Z,97044.97
2022-07-25T04:51:18.762Z,97043.56
2022-07-25T04:53:50.177Z,97037.56
2022-07-25T04:56:19.298Z,97041.06
2022-07-25T04:58:47.623Z,97048.69
2022-07-25T05:01:23.267Z,97041.69
2022-07-25T05:04:59.121Z,97040.88
2022-07-25T05:07:26.879Z,97041.50
2022-07-25T05:10:01.631Z,97040.75
2022-07-25T05:12:31.276Z,97029.19
2022-07-25T05:14:59.921Z,97035.19
2022-07-25T05:17:29.617Z,97030.63
2022-07-25T05:19:58.597Z,97031.03
2022-07-25T05:22:29.099Z,97042.22
2022-07-25T05:25:16.305Z,97040.56
2022-07-25T05:27:59.342Z,97041.81
2022-07-25T05:30:54.246Z,97049.44
2022-07-25T05:33:23.902Z,97041.78
2022-07-25T05:35:52.265Z,97041.38
2022-07-25T05:38:20.619Z,97052.31
2022-07-25T05:40:52.320Z,97044.25
2022-07-25T05:43:20.818Z,97027.53
2022-07-25T05:45:49.249Z,97040.97
2022-07-25T05:48:17.649Z,97027.56
2022-07-25T05:50:47.432Z,97031.91
2022-07-25T05:53:15.768Z,97036.22
2022-07-25T05:55:44.185Z,97033.75
2022-07-25T05:58:12.531Z,97027.97
2022-07-25T06:00:41.141Z,97020.13
2022-07-25T06:03:09.642Z,97024.88
2022-07-25T06:05:38.192Z,97014.97
2022-07-25T06:08:08.449Z,97019.28
2022-07-25T06:10:36.873Z,97008.56
2022-07-25T06:13:05.825Z,97005.88
2022-07-25T06:16:03.532Z,96998.44
2022-07-25T06:19:13.385Z,97000.09
2022-07-25T06:21:43.200Z,96994.91
2022-07-25T06:24:15.769Z,96997.38
2022-07-25T06:27:00.578Z,96997.38
2022-07-25T06:30:06.634Z,96999.66
2022-07-25T06:32:44.645Z,97006.91
2022-07-25T06:35:32.431Z,97002.97
2022-07-25T06:38:01.947Z,96994.94
2022-07-25T06:40:31.996Z,96992.06
2022-07-25T06:43:00.310Z,96994.94
2022-07-25T06:45:28.873Z,96992.66
2022-07-25T06:47:57.203Z,96989.75
2022-07-25T06:50:28.472Z,96981.09
2022-07-25T06:52:56.803Z,96979.00
2022-07-25T06:55:25.104Z,96977.38
2022-07-25T06:57:57.024Z,96976.94
2022-07-25T07:00:27.562Z,96972.59
2022-07-25T07:02:58.417Z,96971.78
2022-07-25T07:05:29.754Z,96975.53
2022-07-25T07:07:58.256Z,96972.44
2022-07-25T07:10:28.226Z,96979.63
2022-07-25T07:13:07.735Z,96980.25
2022-07-25T07:15:37.902Z,96984.78
2022-07-25T07:18:10.650Z,96980.84
2022-07-25T07:20:41.157Z,96980.78
2022-07-25T07:23:10.626Z,96981.81
2022-07-25T07:25:39.570Z,96983.47
2022-07-25T07:28:09.963Z,96974.22
2022-07-25T07:31:13.325Z,96982.00
2022-07-25T07:33:26.766Z,96980.13
2022-07-25T07:35:56.878Z,96982.63
2022-07-25T07:38:25.616Z,96982.84
2022-07-25T07:40:54.289Z,96978.06
2022-07-25T07:43:29.195Z,96968.94
2022-07-25T07:46:00.975Z,96964.38
2022-07-25T07:48:30.203Z,96962.13
2022-07-25T07:50:59.152Z,96962.28
2022-07-25T07:53:47.869Z,96964.16
2022-07-25T07:56:16.034Z,96961.03
2022-07-25T07:58:45.720Z,96958.53
2022-07-25T08:01:14.184Z,96959.53
2022-07-25T08:03:42.635Z,96951.47
2022-07-25T08:06:11.019Z,96948.13
2022-07-25T08:08:39.624Z,96947.19
2022-07-25T08:11:08.016Z,96949.97
2022-07-25T08:13:38.191Z,96946.22
2022-07-25T08:16:08.920Z,96946.31
2022-07-25T08:18:37.596Z,96942.84
2022-07-25T08:21:06.928Z,96944.34
2022-07-25T08:23:38.183Z,96944.06
2022-07-25T08:26:07.528Z,96935.06
2022-07-25T08:28:35.813Z,96937.53
2022-07-25T08:31:04.230Z,96932.38
2022-07-25T08:33:33.923Z,96934.28
2022-07-25T08:36:02.493Z,96935.19
2022-07-25T08:38:30.969Z,96935.72
2022-07-25T08:40:59.849Z,96928.59
2022-07-25T08:43:29.275Z,96931.94
2022-07-25T08:46:01.141Z,96929.09
2022-07-25T08:48:30.221Z,96925.38
2022-07-25T08:51:00.830Z,96928.75
2022-07-25T08:53:34.689Z,96928.31
2022-07-25T08:56:11.260Z,96926.44
2022-07-25T08:58:43.948Z,96927.22
2022-07-25T09:01:13.276Z,96919.13
2022-07-25T09:03:43.177Z,96916.06
2022-07-25T09:06:18.223Z,96911.97
2022-07-25T09:08:54.819Z,96909.56
2022-07-25T09:11:30.573Z,96912.81
2022-07-25T09:14:04.841Z,96903.66
2022-07-25T09:16:35.263Z,96903.13
2022-07-25T09:19:08.628Z,96900.53
2022-07-25T09:21:39.851Z,96899.69
2022-07-25T09:24:13.082Z,96895.56
2022-07-25T09:26:49.452Z,96895.72
2022-07-25T09:29:19.841Z,96897.13
2022-07-25T09:31:48.793Z,96888.97
2022-07-25T09:34:38.119Z,96888.31
2022-07-25T09:37:09.055Z,96894.06
2022-07-25T09:39:45.380Z,96887.81
2022-07-25T09:42:23.732Z,96880.75
2022-07-25T09:45:03.273Z,96885.34
2022-07-25T09:47:33.064Z,96879.31
2022-07-25T09:50:01.929Z,96890.31
2022-07-25T09:52:31.761Z,96877.09
2022-07-25T09:55:03.435Z,96880.50
2022-07-25T09:57:31.884Z,96875.03
2022-07-25T10:00:00.910Z,96876.00
2022-07-25T10:02:42.190Z,96873.34
2022-07-25T10:05:14.924Z,96866.28
2022-07-25T10:07:47.682Z,96859.97
2022-07-25T10:10:25.892Z,96867.34
2022-07-25T10:13:10.483Z,96852.81
2022-07-25T10:15:50.078Z,96849.03
2022-07-25T10:18:21.503Z,96846.72
2022-07-25T10:20:51.969Z,96852.91
2022-07-25T10:23:24.152Z,96846.22
2022-07-25T10:26:04.305Z,96845.78
2022-07-25T10:28:41.556Z,96842.94
2022-07-25T10:31:25.540Z,96844.94
2022-07-25T10:33:56.308Z,96840.84
2022-07-25T10:36:25.602Z,96853.97
2022-07-25T10:38:58.798Z,96838.09
2022-07-25T10:41:28.754Z,96832.88
2022-07-25T10:44:01.778Z,96832.31
2022-07-25T10:46:32.683Z,96824.41
2022-07-25T10:49:02.800Z,96825.22
2022-07-25T10:51:38.207Z,96820.03
2022-07-25T10:54:15.174Z,96821.66
2022-07-25T10:56:52.965Z,96801.81
2022-07-25T10:59:32.969Z,96811.22
2022-07-25T11:02:01.860Z,96815.84
2022-07-25T11:04:31.361Z,96821.94
2022-07-25T11:07:09.875Z,96811.38
2022-07-25T11:09:40.369Z,96809.94
2022-07-25T11:12:09.251Z,96808.53
2022-07-25T11:14:41.333Z,96803.72
2022-07-25T11:17:15.493Z,96806.44
2022-07-25T11:19:45.691Z,96807.03
2022-07-25T11:22:14.218Z,96802.22
2022-07-25T11:24:51.345Z,96796.34
2022-07-25T11:27:24.590Z,96787.19
2022-07-25T11:29:53.018Z,96786.94
2022-07-25T11:32:21.349Z,96782.38
2022-07-25T11:35:00.476Z,96788.13
2022-07-25T11:37:35.907Z,96787.63
2022-07-25T11:40:16.688Z,96783.06
2022-07-25T11:42:47.013Z,96778.22
2022-07-25T11:45:19.849Z,96777.75
2022-07-25T11:47:49.378Z,96770.47
2022-07-25T11:50:17.810Z,96765.41
2022-07-25T11:52:46.719Z,96758.13
2022-07-25T11:55:18.977Z,96769.81
2022-07-25T11:57:48.096Z,96759.03
2022-07-25T12:00:19.666Z,96748.78
2022-07-25T12:02:49.122Z,96747.25
2022-07-25T12:05:19.150Z,96739.72
2022-07-25T12:07:49.220Z,96738.41
2022-07-25T12:10:21.050Z,96730.91
2022-07-25T12:12:51.348Z,96725.81
2022-07-25T12:15:21.828Z,96728.03
2022-07-25T12:17:50.662Z,96715.59
2022-07-25T12:20:20.689Z,96722.72
2022-07-25T12:22:50.005Z,96720.59
2022-07-25T12:25:19.934Z,96716.88
2022-07-25T12:27:48.696Z,96713.44
2022-07-25T12:30:17.177Z,96708.84
2022-07-25T12:32:45.620Z,96712.94
2022-07-25T12:35:16.165Z,96707.88
2022-07-25T12:37:45.335Z,96711.66
2022-07-25T12:40:15.643Z,96705.41
2022-07-25T12:42:46.091Z,96703.88
2022-07-25T12:45:15.529Z,96689.88
2022-07-25T12:47:45.413Z,96690.69
2022-07-25T12:50:15.434Z,96691.75
2022-07-25T12:52:44.118Z,96683.41
2022-07-25T12:55:14.838Z,96685.78
2022-07-25T12:57:43.265Z,96704.44
2022-07-25T13:00:17.590Z,96686.91
2022-07-25T13:02:46.787Z,96683.16
2022-07-25T13:05:15.593Z,96681.34
2022-07-25T13:07:43.972Z,96674.31
2022-07-25T13:10:12.675Z,96674.63
2022-07-25T13:12:41.078Z,96678.41
2022-07-25T13:15:36.947Z,96674.13
2022-07-25T13:18:05.473Z,96686.09
2022-07-25T13:20:36.525Z,96672.81
2022-07-25T13:23:20.902Z,96656.94
2022-07-25T13:25:54.191Z,96662.41
2022-07-25T13:28:23.236Z,96656.75
2022-07-25T13:30:57.130Z,96652.16
2022-07-25T13:33:29.946Z,96642.16
2022-07-25T13:36:16.779Z,96638.69
2022-07-25T13:38:48.263Z,96635.41
2022-07-25T13:41:17.650Z,96646.06
2022-07-25T13:43:58.382Z,96640.41
2022-07-25T13:46:33.978Z,96622.78
2022-07-25T13:49:08.287Z,96632.78
2022-07-25T13:52:04.416Z,96632.28
2022-07-25T13:54:34.737Z,96619.59
2022-07-25T13:57:07.555Z,96621.00
2022-07-25T13:59:56.978Z,96619.19
2022-07-25T14:02:26.744Z,96613.53
2022-07-25T14:04:55.107Z,96605.22
2022-07-25T14:07:23.498Z,96603.09
2022-07-25T14:09:51.861Z,96614.16
2022-07-25T14:12:37.727Z,96609.31
2022-07-25T14:15:19.998Z,96606.13
2022-07-25T14:18:12.804Z,96601.53
2022-07-25T14:20:46.981Z,96589.38
2022-07-25T14:23:15.638Z,96611.03
2022-07-25T14:25:43.989Z,96602.09
2022-07-25T14:28:12.360Z,96597.56
2022-07-25T14:30:40.889Z,96600.31
2022-07-25T14:33:09.514Z,96594.41
2022-07-25T14:35:39.991Z,96595.22
2022-07-25T14:38:08.346Z,96593.09
2022-07-25T14:40:37.065Z,96593.66
2022-07-25T14:43:05.388Z,96602.91
2022-07-25T14:45:34.568Z,96583.69
2022-07-25T14:48:03.341Z,96590.75
2022-07-25T14:50:31.675Z,96568.78
2022-07-25T14:53:01.281Z,96581.88
2022-07-25T14:55:29.810Z,96572.44
2022-07-25T14:58:02.320Z,96568.09
2022-07-25T15:00:30.816Z,96566.19
2022-07-25T15:02:59.158Z,96566.56
2022-07-25T15:05:27.489Z,96565.47
2022-07-25T15:07:55.797Z,96563.41
2022-07-25T15:10:25.521Z,96561.50
2022-07-25T15:13:07.861Z,96564.22
2022-07-25T15:15:42.229Z,96563.97
2022-07-25T15:18:13.866Z,96552.88
2022-07-25T15:20:42.664Z,96538.50
2022-07-25T15:23:10.950Z,96555.88
2022-07-25T15:28:29.000Z,96522.88
2022-07-25T15:30:57.356Z,96518.84
2022-07-25T15:33:25.705Z,96517.50
2022-07-25T15:35:54.140Z,96513.16
2022-07-25T15:38:22.898Z,96511.81
2022-07-25T15:40:52.684Z,96516.97
2022-07-25T15:43:21.176Z,96522.69
2022-07-25T15:45:49.754Z,96519.75
2022-07-25T15:48:18.669Z,96515.13
2022-07-25T15:50:49.349Z,96509.47
2022-07-25T15:53:17.866Z,96510.84
2022-07-25T15:55:46.192Z,96508.66
2022-07-25T15:58:18.140Z,96510.03
2022-07-25T16:00:46.789Z,96506.22
2022-07-25T16:03:15.533Z,96503.53
2022-07-25T16:05:44.823Z,96488.34
2022-07-25T16:08:13.119Z,96484.56
2022-07-25T16:10:41.634Z,96484.03
2022-07-25T16:13:09.895Z,96477.56
2022-07-25T16:15:39.761Z,96480.81
2022-07-25T16:18:08.041Z,96473.75
2022-07-25T16:20:36.289Z,96490.03
2022-07-25T16:23:04.752Z,96488.69
2022-07-25T16:25:32.998Z,96482.44
2022-07-25T16:28:01.450Z,96488.13
2022-07-25T16:30:29.826Z,96495.75
2022-07-25T16:33:00.683Z,96500.91
2022-07-25T16:35:29.256Z,96500.41
2022-07-25T16:37:57.716Z,96511.81
2022-07-25T16:40:30.500Z,96532.41
2022-07-25T16:42:59.978Z,96561.09
2022-07-25T16:45:28.835Z,96593.91
2022-07-25T16:47:57.232Z,96650.00
2022-07-25T16:50:26.837Z,96645.66
2022-07-25T16:52:55.147Z,96705.13
2022-07-25T16:55:23.805Z,96706.22
2022-07-25T16:57:52.160Z,96711.13
2022-07-25T17:00:20.885Z,96709.06
2022-07-25T17:02:52.611Z,96690.94
2022-07-25T17:05:21.202Z,96667.16
2022-07-25T17:07:58.990Z,96661.28
2022-07-25T17:10:30.000Z,96662.34
2022-07-25T17:13:02.262Z,96652.22
2022-07-25T17:15:31.349Z,96641.09
2022-07-25T17:18:00.231Z,96626.44
2022-07-25T17:20:28.554Z,96641.72
2022-07-25T17:22:58.251Z,96632.28
2022-07-25T17:25:26.623Z,96625.72
2022-07-25T17:27:55.080Z,96615.41
2022-07-25T17:30:23.474Z,96600.84
2022-07-25T17:32:53.234Z,96603.72
2022-07-25T17:35:21.708Z,96608.84
2022-07-25T17:37:50.107Z,96599.44
2022-07-25T17:40:20.017Z,96602.03
2022-07-25T17:42:48.868Z,96602.72
2022-07-25T17:45:17.351Z,96597.75
2022-07-25T17:47:45.759Z,96612.63
2022-07-25T17:50:14.413Z,96606.41
2022-07-25T17:52:42.786Z,96606.03
2022-07-25T17:55:12.091Z,96608.97
2022-07-25T17:57:43.119Z,96609.22
2022-07-25T18:00:13.564Z,96602.91
2022-07-25T18:02:42.573Z,96615.09
2022-07-25T18:05:10.981Z,96615.53
2022-07-25T18:07:40.733Z,96616.25
2022-07-25T18:10:09.677Z,96618.59
2022-07-25T18:12:38.134Z,96618.59
2022-07-25T18:15:09.873Z,96623.53
2022-07-25T18:17:38.205Z,96631.97
2022-07-25T18:20:07.479Z,96645.03
2022-07-25T18:22:38.139Z,96645.75
2022-07-25T18:25:07.538Z,96627.59
2022-07-25T18:27:35.960Z,96621.94
2022-07-25T18:30:05.910Z,96635.22
2022-07-25T18:32:35.694Z,96638.06
2022-07-25T18:35:04.571Z,96637.97
2022-07-25T18:37:33.619Z,96630.06
2022-07-25T18:40:02.043Z,96634.84
2022-07-25T18:42:30.675Z,96632.44
2022-07-25T18:44:59.596Z,96639.94
2022-07-25T18:47:32.155Z,96621.38
2022-07-25T18:50:02.831Z,96626.09
2022-07-25T18:52:35.044Z,96631.72
2022-07-25T18:55:04.614Z,96645.66
2022-07-25T18:57:33.577Z,96638.59
2022-07-25T19:00:03.330Z,96646.72
2022-07-25T19:02:32.411Z,96644.03
2022-07-25T19:05:02.664Z,96657.16
2022-07-25T19:07:31.647Z,96659.69
2022-07-25T19:10:00.355Z,96660.72
2022-07-25T19:12:29.159Z,96662.69
2022-07-25T19:14:57.622Z,96657.25
2022-07-25T19:17:25.944Z,96662.31
2022-07-25T19:19:54.433Z,96657.16
2022-07-25T19:22:24.192Z,96667.00
2022-07-25T19:24:52.855Z,96666.06
2022-07-25T19:27:23.793Z,96681.97
2022-07-25T19:29:52.337Z,96676.94
2022-07-25T19:32:22.426Z,96680.72
2022-07-25T19:34:50.873Z,96692.28
2022-07-25T19:37:19.503Z,96685.03
2022-07-25T19:39:49.769Z,96693.09
2022-07-25T19:42:18.154Z,96699.53
2022-07-25T19:44:46.984Z,96703.66
2022-07-25T19:47:15.317Z,96709.78
2022-07-25T19:49:43.787Z,96715.94
2022-07-25T19:52:12.216Z,96709.50
2022-07-25T19:54:40.836Z,96702.69
2022-07-25T19:57:10.800Z,96699.31
2022-07-25T19:59:39.264Z,96696.41
2022-07-25T20:02:07.836Z,96706.06
2022-07-25T20:04:37.003Z,96720.25
2022-07-25T20:07:05.357Z,96731.53
2022-07-25T20:09:34.803Z,96732.91
2022-07-25T20:12:03.394Z,96731.75
2022-07-25T20:14:33.133Z,96730.22
2022-07-25T20:17:03.234Z,96731.63
2022-07-25T20:19:31.829Z,96730.31
2022-07-25T20:22:00.288Z,96731.00
2022-07-25T20:24:28.591Z,96725.84
2022-07-25T20:26:57.009Z,96716.97
2022-07-25T20:29:25.358Z,96710.84
2022-07-25T20:31:55.057Z,96717.34
2022-07-25T20:34:23.427Z,96715.91
2022-07-25T20:36:51.774Z,96710.06
2022-07-25T20:39:20.285Z,96693.84
2022-07-25T20:41:48.972Z,96690.31
2022-07-25T20:44:17.239Z,96685.25
2022-07-25T20:46:45.539Z,96675.63
2022-07-25T20:49:15.281Z,96679.56
2022-07-25T20:51:43.646Z,96685.84
2022-07-25T20:54:12.728Z,96716.16
2022-07-25T20:56:41.080Z,96719.06
2022-07-25T20:59:09.910Z,96720.06
2022-07-25T21:01:38.687Z,96718.78
2022-07-25T21:04:07.987Z,96739.78
2022-07-25T21:06:37.780Z,96754.28
2022-07-25T21:09:06.680Z,96766.28
2022-07-25T21:11:35.952Z,96807.16
2022-07-25T21:14:04.757Z,96821.97
2022-07-25T21:16:33.714Z,96813.69
2022-07-25T21:19:02.180Z,96807.72
2022-07-25T21:21:30.648Z,96805.19
2022-07-25T21:24:00.323Z,96814.31
2022-07-25T21:26:29.751Z,96817.97
2022-07-25T21:28:58.216Z,96824.09
2022-07-25T21:31:26.620Z,96819.22
2022-07-25T21:33:55.069Z,96825.19
2022-07-25T21:36:23.363Z,96845.50
2022-07-25T21:38:51.660Z,96847.94
2022-07-25T21:41:21.540Z,96872.66
2022-07-25T21:43:49.917Z,96873.47
2022-07-25T21:46:18.362Z,96855.16
2022-07-25T21:49:04.609Z,96865.88
2022-07-25T21:51:40.329Z,96859.22
2022-07-25T21:54:09.594Z,96865.78
2022-07-25T21:56:41.183Z,96871.22
2022-07-25T21:59:10.015Z,96879.53
2022-07-25T22:01:39.558Z,96895.44
2022-07-25T22:04:08.019Z,96901.16
2022-07-25T22:06:36.537Z,96916.88
2022-07-25T22:09:05.802Z,96925.53
2022-07-25T22:11:42.440Z,96935.88
2022-07-25T22:14:16.993Z,96941.34
2022-07-25T22:16:45.441Z,96942.69
2022-07-25T22:19:14.055Z,96941.72
2022-07-25T22:21:42.443Z,96926.81
2022-07-25T22:24:11.206Z,96944.28
2022-07-25T22:26:39.518Z,96943.38
2022-07-25T22:29:08.322Z,96949.97
2022-07-25T22:31:39.419Z,96952.44
2022-07-25T22:34:08.021Z,96952.81
2022-07-25T22:36:36.487Z,96959.03
2022-07-25T22:39:05.242Z,96974.53
2022-07-25T22:41:33.771Z,96967.72
2022-07-25T22:44:02.154Z,96975.94
2022-07-25T22:46:31.328Z,96976.16
2022-07-25T22:49:01.433Z,96988.97
2022-07-25T22:51:30.588Z,97005.28
2022-07-25T22:53:59.336Z,97005.88
2022-07-25T22:56:27.984Z,97013.38
2022-07-25T22:58:56.325Z,97026.22
2022-07-25T23:01:24.860Z,97031.41
2022-07-25T23:03:53.479Z,97038.22
2022-07-25T23:06:23.149Z,97044.66
2022-07-25T23:08:51.613Z,97047.34
2022-07-25T23:11:19.998Z,97043.59
2022-07-25T23:13:48.280Z,97042.16
2022-07-25T23:16:16.961Z,97054.97
2022-07-25T23:18:45.295Z,97050.84
2022-07-25T23:21:13.574Z,97057.28
2022-07-25T23:23:43.211Z,97065.16
2022-07-25T23:26:11.713Z,97070.31
2022-07-25T23:28:39.965Z,97082.97
2022-07-25T23:31:08.379Z,97091.03
2022-07-25T23:33:37.053Z,97091.25
2022-07-25T23:36:06.025Z,97105.34
2022-07-25T23:38:34.320Z,97099.72
2022-07-25T23:41:04.492Z,97086.47
2022-07-25T23:43:56.915Z,97096.66
2022-07-25T23:46:21.112Z,97082.34
2022-07-25T23:48:56.619Z,97081.31
2022-07-25T23:51:25.054Z,97082.59
2022-07-25T23:53:53.574Z,97078.00
2022-07-25T23:56:23.259Z,97072.84
2022-07-25T23:58:51.713Z,97087.75
